Time;durP1;ratioP1;P1;durP2;ratioP2;P2;SDS_P1;SDS_P2;PMS_P1;PMS_P2;Temp;Humidity;BMP_temperature;BMP_pressure;BME280_temperature;BME280_humidity;BME280_pressure;Samples;Min_cycle;Max_cycle;Signal;HPM_P1;HPM_P2
2023/08/11 00:01:22;;;;;;;;;;;;;;;16.41;85.72;96974.47;5046890;28;19960;-74
2023/08/11 00:03:47;;;;;;;;;;;;;;;16.38;85.46;96967.03;5047041;28;20301;-73
2023/08/11 00:06:16;;;;;;;;;;;;;;;16.36;85.44;96966.47;5046340;28;19966;-73
2023/08/11 00:08:42;;;;;;;;;;;;;;;16.32;86.01;96964.56;5046193;28;19951;-72
2023/08/11 00:11:08;;;;;;;;;;;;;;;16.29;85.30;96962.38;5046369;28;19958;-73
2023/08/11 00:13:34;;;;;;;;;;;;;;;16.26;85.55;96966.31;5046591;28;19965;-75
2023/08/11 00:16:03;;;;;;;;;;;;;;;16.23;86.05;96966.78;5046518;28;20315;-75
2023/08/11 00:18:29;;;;;;;;;;;;;;;16.21;86.50;96969.69;5046365;28;19968;-75
2023/08/11 00:20:55;;;;;;;;;;;;;;;16.18;86.60;96970.16;5046610;28;19965;-75
2023/08/11 00:23:21;;;;;;;;;;;;;;;16.15;86.17;96975.94;5046478;28;19973;-75
2023/08/11 00:25:47;;;;;;;;;;;;;;;16.11;86.74;96972.16;5046295;28;19964;-75
2023/08/11 00:28:13;;;;;;;;;;;;;;;16.08;87.00;96974.47;5046661;28;20218;-70
2023/08/11 00:30:38;;;;;;;;;;;;;;;16.05;87.41;96978.41;5045866;28;19951;-72
2023/08/11 00:33:05;;;;;;;;;;;;;;;16.03;87.87;96983.94;5045909;28;19960;-72
2023/08/11 00:35:31;;;;;;;;;;;;;;;16.00;87.70;96983.59;5045908;28;19958;-72
2023/08/11 00:37:57;;;;;;;;;;;;;;;15.97;87.53;96984.09;5045770;28;19972;-72
2023/08/11 00:40:23;;;;;;;;;;;;;;;15.93;88.06;96985.59;5045575;28;19959;-72
2023/08/11 00:42:50;;;;;;;;;;;;;;;15.88;88.63;96988.19;5045911;28;19958;-72
2023/08/11 00:45:16;;;;;;;;;;;;;;;15.86;88.13;96992.91;5045821;28;19959;-70
2023/08/11 00:47:42;;;;;;;;;;;;;;;15.83;88.63;96995.00;5045934;28;19961;-74
2023/08/11 00:50:09;;;;;;;;;;;;;;;15.80;88.38;96995.44;5045937;28;19963;-69
2023/08/11 00:52:35;;;;;;;;;;;;;;;15.78;88.78;96996.72;5045844;28;19955;-70
2023/08/11 00:55:01;;;;;;;;;;;;;;;15.74;89.35;97003.53;5045829;28;19957;-70
2023/08/11 00:57:27;;;;;;;;;;;;;;;15.71;89.12;96998.69;5045322;28;19945;-70
2023/08/11 00:59:53;;;;;;;;;;;;;;;15.68;89.47;96989.38;5045954;28;20142;-70
2023/08/11 01:02:18;;;;;;;;;;;;;;;15.66;89.75;96996.75;5045732;28;19956;-70
2023/08/11 01:04:44;;;;;;;;;;;;;;;15.63;89.84;96989.28;5045340;28;19956;-70
2023/08/11 01:07:31;;;;;;;;;;;;;;;15.60;90.06;96993.22;5045389;28;19967;-70
2023/08/11 01:10:10;;;;;;;;;;;;;;;15.57;89.87;96998.97;5044839;28;20279;-70
2023/08/11 01:12:46;;;;;;;;;;;;;;;15.54;90.40;96991.50;5045430;28;19961;-70
2023/08/11 01:15:11;;;;;;;;;;;;;;;15.51;90.72;96989.31;5045426;28;19955;-70
2023/08/11 01:17:38;;;;;;;;;;;;;;;15.48;90.86;96991.66;5044880;28;20005;-70
2023/08/11 01:20:10;;;;;;;;;;;;;;;15.45;90.98;96994.75;5044830;28;19964;-70
2023/08/11 01:22:43;;;;;;;;;;;;;;;15.43;90.99;96989.69;5044960;28;19956;-72
2023/08/11 01:25:10;;;;;;;;;;;;;;;15.40;90.79;96988.34;5045362;28;19966;-74
2023/08/11 01:27:43;;;;;;;;;;;;;;;15.37;91.58;96986.19;5027200;28;19973;-73
2023/08/11 01:30:10;;;;;;;;;;;;;;;15.35;91.14;96979.50;5044816;28;19960;-73
2023/08/11 01:32:36;;;;;;;;;;;;;;;15.33;90.81;96982.41;5044965;28;19953;-73
2023/08/11 01:35:05;;;;;;;;;;;;;;;15.33;90.96;96984.22;5045002;28;19969;-73
2023/08/11 01:37:31;;;;;;;;;;;;;;;15.31;91.08;96986.31;5045047;28;19971;-73
2023/08/11 01:39:58;;;;;;;;;;;;;;;15.28;91.37;96982.28;5045255;28;19971;-73
2023/08/11 01:42:24;;;;;;;;;;;;;;;15.27;91.68;96980.69;5045225;28;19943;-74
2023/08/11 01:44:51;;;;;;;;;;;;;;;15.28;91.98;96981.47;5044777;28;20143;-70
2023/08/11 01:47:17;;;;;;;;;;;;;;;15.28;92.77;96992.06;5044429;28;19967;-70
2023/08/11 01:49:43;;;;;;;;;;;;;;;15.27;92.40;96995.75;5044481;28;20249;-70
2023/08/11 01:52:09;;;;;;;;;;;;;;;15.25;92.26;97000.47;5044522;28;19962;-70
2023/08/11 01:54:34;;;;;;;;;;;;;;;15.23;92.42;96996.19;5044519;28;20032;-70
2023/08/11 01:57:01;;;;;;;;;;;;;;;15.20;93.00;96995.84;5044551;28;19960;-70
2023/08/11 01:59:28;;;;;;;;;;;;;;;15.18;93.22;97000.56;5044488;28;19963;-74
2023/08/11 02:01:54;;;;;;;;;;;;;;;15.15;93.89;96998.41;5044662;28;19961;-72
2023/08/11 02:04:20;;;;;;;;;;;;;;;15.13;93.45;97003.13;5044660;28;20039;-71
2023/08/11 02:06:45;;;;;;;;;;;;;;;15.11;94.04;96999.91;5044554;28;19973;-70
2023/08/11 02:09:12;;;;;;;;;;;;;;;15.08;92.77;96992.47;5044630;28;20170;-71
2023/08/11 02:11:38;;;;;;;;;;;;;;;15.06;93.01;96997.16;5044655;28;19964;-70
2023/08/11 02:14:05;;;;;;;;;;;;;;;15.03;94.02;96998.41;5044626;28;20233;-70
2023/08/11 02:16:31;;;;;;;;;;;;;;;15.00;94.24;97001.53;5045000;28;19977;-70
2023/08/11 02:18:57;;;;;;;;;;;;;;;14.98;94.55;97008.88;5044217;28;19959;-74
2023/08/11 02:21:23;;;;;;;;;;;;;;;14.92;94.16;96994.75;5044287;28;19969;-73
2023/08/11 02:23:49;;;;;;;;;;;;;;;14.90;94.17;96994.19;5044224;28;19997;-73
2023/08/11 02:26:15;;;;;;;;;;;;;;;14.86;94.96;97003.59;5044273;28;19984;-72
2023/08/11 02:28:41;;;;;;;;;;;;;;;14.83;94.92;96996.16;5043988;28;19958;-72
2023/08/11 02:31:08;;;;;;;;;;;;;;;14.81;94.68;97003.50;5045556;28;19962;-72
2023/08/11 02:33:34;;;;;;;;;;;;;;;14.79;95.59;97002.94;5048384;28;19963;-73
2023/08/11 02:36:00;;;;;;;;;;;;;;;14.75;95.89;96996.50;5006876;28;19972;-75
2023/08/11 02:38:26;;;;;;;;;;;;;;;14.73;96.27;96998.56;5006679;28;19964;-70
2023/08/11 02:40:51;;;;;;;;;;;;;;;14.70;97.24;96999.03;5006659;28;19964;-72
2023/08/11 02:43:17;;;;;;;;;;;;;;;14.67;96.51;97002.13;5006679;28;19978;-73
2023/08/11 02:45:43;;;;;;;;;;;;;;;14.65;96.25;96993.63;5006781;28;19959;-72
2023/08/11 02:48:09;;;;;;;;;;;;;;;14.63;96.03;96990.44;5007105;28;19994;-73
2023/08/11 02:50:35;;;;;;;;;;;;;;;14.59;96.46;96998.00;5006475;28;19957;-72
2023/08/11 02:53:01;;;;;;;;;;;;;;;14.57;96.80;96997.41;5006475;28;19962;-72
2023/08/11 02:55:26;;;;;;;;;;;;;;;14.54;96.72;96995.22;5006401;28;19970;-70
2023/08/11 02:57:52;;;;;;;;;;;;;;;14.54;96.58;96992.59;5006408;28;19964;-70
2023/08/11 03:00:18;;;;;;;;;;;;;;;14.52;95.96;96986.72;5006494;28;19972;-69
2023/08/11 03:02:47;;;;;;;;;;;;;;;14.52;95.13;96992.81;5006413;28;20267;-69
2023/08/11 03:05:14;;;;;;;;;;;;;;;14.51;95.90;96987.75;5006357;28;19957;-69
2023/08/11 03:07:40;;;;;;;;;;;;;;;14.49;96.76;96995.91;5020466;28;19983;-69
2023/08/11 03:10:06;;;;;;;;;;;;;;;14.47;96.53;96989.22;5047241;28;19953;-70
2023/08/11 03:12:33;;;;;;;;;;;;;;;14.45;97.41;96991.31;5047354;28;19961;-76
2023/08/11 03:14:58;;;;;;;;;;;;;;;14.42;98.01;97000.47;5048031;28;19958;-72
2023/08/11 03:17:24;;;;;;;;;;;;;;;14.37;98.38;96993.25;5047124;28;20150;-70
2023/08/11 03:19:51;;;;;;;;;;;;;;;14.36;97.97;96993.47;5047344;28;19966;-69
2023/08/11 03:22:17;;;;;;;;;;;;;;;14.33;97.20;96986.81;5047333;28;20243;-69
2023/08/11 03:24:44;;;;;;;;;;;;;;;14.33;96.66;96986.81;5047252;28;19959;-69
2023/08/11 03:27:12;;;;;;;;;;;;;;;14.33;97.75;96992.09;5047113;28;20259;-69
2023/08/11 03:29:38;;;;;;;;;;;;;;;14.29;98.47;96988.31;5047314;28;19953;-70
2023/08/11 03:32:04;;;;;;;;;;;;;;;14.27;97.86;96989.56;5047370;28;19964;-73
2023/08/11 03:34:30;;;;;;;;;;;;;;;14.24;97.82;96990.84;5047356;28;19968;-77
2023/08/11 03:36:56;;;;;;;;;;;;;;;14.22;97.58;96987.63;5047342;28;20133;-77
2023/08/11 03:39:22;;;;;;;;;;;;;;;14.20;98.15;96987.06;5047242;28;19976;-77
2023/08/11 03:41:47;;;;;;;;;;;;;;;14.18;97.75;96989.13;5046971;28;19976;-76
2023/08/11 03:44:13;;;;;;;;;;;;;;;14.15;98.58;96997.47;5046785;28;19957;-76
2023/08/11 03:46:39;;;;;;;;;;;;;;;14.13;97.71;96988.97;5046703;28;19962;-76
2023/08/11 03:49:06;;;;;;;;;;;;;;;14.11;97.64;96991.84;5046774;28;20157;-76
2023/08/11 03:51:32;;;;;;;;;;;;;;;14.10;97.83;96995.50;5046778;28;19955;-76
2023/08/11 03:54:02;;;;;;;;;;;;;;;14.09;97.96;97004.47;5046802;28;19955;-76
2023/08/11 03:56:28;;;;;;;;;;;;;;;14.09;98.20;97004.47;5046839;28;19976;-76
2023/08/11 03:58:54;;;;;;;;;;;;;;;14.08;98.99;97002.03;5046820;28;19964;-76
2023/08/11 04:01:20;;;;;;;;;;;;;;;14.08;99.36;97002.03;5046854;28;19983;-76
2023/08/11 04:03:46;;;;;;;;;;;;;;;14.09;99.26;97004.47;5046921;28;20037;-76
2023/08/11 04:06:12;;;;;;;;;;;;;;;14.10;99.61;97005.25;5046814;28;19969;-76
2023/08/11 04:08:37;;;;;;;;;;;;;;;14.11;99.24;96996.31;5046755;28;20015;-74
2023/08/11 04:11:03;;;;;;;;;;;;;;;14.11;100.00;96999.78;5046515;28;19964;-72
2023/08/11 04:13:29;;;;;;;;;;;;;;;14.11;100.00;97002.41;5046647;28;19958;-72
2023/08/11 04:15:55;;;;;;;;;;;;;;;14.12;100.00;96995.28;5046496;28;20003;-72
2023/08/11 04:18:21;;;;;;;;;;;;;;;14.12;100.00;96997.94;5046605;28;20000;-72
2023/08/11 04:20:47;;;;;;;;;;;;;;;14.13;100.00;96996.88;5046542;28;19954;-72
2023/08/11 04:23:13;;;;;;;;;;;;;;;14.13;100.00;96994.25;5045926;28;20007;-72
2023/08/11 04:25:39;;;;;;;;;;;;;;;14.13;100.00;96996.88;5046443;28;20267;-72
2023/08/11 04:28:05;;;;;;;;;;;;;;;14.11;100.00;96997.13;5046171;28;19956;-70
2023/08/11 04:30:32;;;;;;;;;;;;;;;14.09;100.00;96999.19;5046292;28;20051;-73
2023/08/11 04:32:59;;;;;;;;;;;;;;;14.09;100.00;96991.28;5046260;28;19962;-73
2023/08/11 04:35:25;;;;;;;;;;;;;;;14.09;100.00;96993.09;5046315;28;19963;-74
2023/08/11 04:37:51;;;;;;;;;;;;;;;14.10;100.00;96994.72;5046328;28;20237;-74
2023/08/11 04:40:17;;;;;;;;;;;;;;;14.11;100.00;96998.94;5046265;28;19971;-74
2023/08/11 04:42:43;;;;;;;;;;;;;;;14.11;100.00;96999.78;5046062;28;19959;-73
2023/08/11 04:45:10;;;;;;;;;;;;;;;14.11;100.00;96998.94;5046099;28;19969;-73
2023/08/11 04:47:36;;;;;;;;;;;;;;;14.14;100.00;96999.31;5046163;28;19963;-73
2023/08/11 04:50:02;;;;;;;;;;;;;;;14.19;100.00;96999.44;5028033;28;19959;-74
2023/08/11 04:52:28;;;;;;;;;;;;;;;14.26;100.00;96996.69;5045605;28;19962;-75
2023/08/11 04:54:54;;;;;;;;;;;;;;;14.31;100.00;96996.00;5045002;28;19959;-74
2023/08/11 04:57:20;;;;;;;;;;;;;;;14.36;100.00;96996.94;5045780;28;19959;-74
2023/08/11 04:59:46;;;;;;;;;;;;;;;14.44;100.00;96992.34;5045865;28;19968;-74
2023/08/11 05:02:12;;;;;;;;;;;;;;;14.50;100.00;96991.44;5045745;28;19968;-74
2023/08/11 05:04:38;;;;;;;;;;;;;;;14.58;100.00;96991.13;5045706;28;19962;-75
2023/08/11 05:07:06;;;;;;;;;;;;;;;14.68;100.00;96993.16;5011235;28;19968;-74
2023/08/11 05:09:32;;;;;;;;;;;;;;;14.75;100.00;96994.66;5045127;28;19945;-76
2023/08/11 05:11:58;;;;;;;;;;;;;;;14.84;100.00;97004.88;5045396;28;19981;-74
2023/08/11 05:14:24;;;;;;;;;;;;;;;14.92;99.88;96996.59;5045164;28;20235;-75
2023/08/11 05:16:50;;;;;;;;;;;;;;;15.00;100.00;96997.06;5045107;28;19963;-74
2023/08/11 05:19:15;;;;;;;;;;;;;;;15.08;100.00;97000.38;5045144;28;20157;-74
2023/08/11 05:21:42;;;;;;;;;;;;;;;15.16;99.79;97005.28;5044776;28;19962;-74
2023/08/11 05:24:10;;;;;;;;;;;;;;;15.22;99.68;97005.19;5045157;28;19961;-74
2023/08/11 05:26:36;;;;;;;;;;;;;;;15.31;99.56;97005.59;5044999;28;19965;-73
2023/08/11 05:29:02;;;;;;;;;;;;;;;15.39;98.97;96999.13;5045181;28;20154;-73
2023/08/11 05:31:28;;;;;;;;;;;;;;;15.50;98.44;97002.81;5045118;28;19955;-73
2023/08/11 05:33:55;;;;;;;;;;;;;;;15.58;98.11;97003.22;5045184;28;19958;-73
2023/08/11 05:36:21;;;;;;;;;;;;;;;15.68;96.92;97007.09;5045079;28;20242;-74
2023/08/11 05:38:46;;;;;;;;;;;;;;;15.82;97.39;97006.59;5044590;28;19961;-72
2023/08/11 05:41:12;;;;;;;;;;;;;;;15.95;95.86;96992.25;5045259;28;20023;-75
2023/08/11 05:43:38;;;;;;;;;;;;;;;16.16;96.13;96989.97;5045008;28;20011;-76
2023/08/11 05:46:07;;;;;;;;;;;;;;;16.40;95.55;96993.28;5045014;28;19965;-76
2023/08/11 05:48:34;;;;;;;;;;;;;;;16.68;94.98;96988.91;5045065;28;19962;-76
2023/08/11 05:50:59;;;;;;;;;;;;;;;16.98;93.85;96978.72;5044367;28;19963;-76
2023/08/11 05:53:25;;;;;;;;;;;;;;;17.29;92.66;96970.38;5044596;28;19956;-77
2023/08/11 05:55:51;;;;;;;;;;;;;;;17.59;90.77;96957.41;5044669;28;19989;-76
2023/08/11 05:58:17;;;;;;;;;;;;;;;17.87;89.34;96952.97;5044717;28;20116;-75
2023/08/11 06:00:43;;;;;;;;;;;;;;;18.12;87.76;96951.56;5044751;28;19968;-73
2023/08/11 06:03:08;;;;;;;;;;;;;;;18.39;85.67;96938.22;5044858;28;20036;-74
2023/08/11 06:05:34;;;;;;;;;;;;;;;18.62;85.61;96947.66;5044477;28;19987;-74
2023/08/11 06:08:00;;;;;;;;;;;;;;;18.84;84.38;96939.56;5044083;28;20241;-74
2023/08/11 06:10:26;;;;;;;;;;;;;;;19.01;82.80;96928.75;5044288;28;19964;-74
2023/08/11 06:12:52;;;;;;;;;;;;;;;19.15;82.56;96932.53;5044632;28;19960;-74
2023/08/11 06:15:18;;;;;;;;;;;;;;;19.33;82.52;96935.78;5044612;28;19966;-74
2023/08/11 06:17:49;;;;;;;;;;;;;;;19.46;80.74;96928.09;5044279;28;19960;-73
2023/08/11 06:20:15;;;;;;;;;;;;;;;19.57;80.46;96922.78;5044739;28;19957;-75
2023/08/11 06:22:41;;;;;;;;;;;;;;;19.66;81.63;96931.84;5044281;28;20017;-75
2023/08/11 06:25:07;;;;;;;;;;;;;;;19.70;80.15;96918.81;5044327;28;19960;-75
2023/08/11 06:27:33;;;;;;;;;;;;;;;19.72;79.31;96920.19;5044263;28;19973;-76
2023/08/11 06:29:59;;;;;;;;;;;;;;;19.70;79.77;96916.13;5045219;28;19954;-75
2023/08/11 06:32:24;;;;;;;;;;;;;;;19.77;80.74;96919.38;5044403;28;20143;-75
2023/08/11 06:34:50;;;;;;;;;;;;;;;19.86;80.42;96931.91;5044406;28;19963;-75
2023/08/11 06:37:17;;;;;;;;;;;;;;;19.97;79.16;96923.91;5044280;28;19956;-75
2023/08/11 06:39:43;;;;;;;;;;;;;;;20.06;80.09;96927.66;5044433;28;19955;-73
2023/08/11 06:42:09;;;;;;;;;;;;;;;20.03;79.14;96922.84;5026871;28;19963;-73
2023/08/11 06:44:35;;;;;;;;;;;;;;;20.00;79.47;96931.38;5044436;28;19959;-73
2023/08/11 06:47:00;;;;;;;;;;;;;;;20.04;79.10;96925.25;5043912;28;20000;-72
2023/08/11 06:49:26;;;;;;;;;;;;;;;20.14;79.66;96931.63;5043919;28;19959;-73
2023/08/11 06:51:52;;;;;;;;;;;;;;;20.24;79.39;96929.78;5043988;28;20242;-73
2023/08/11 06:54:18;;;;;;;;;;;;;;;20.30;79.81;96933.22;5044165;28;19964;-71
2023/08/11 06:56:44;;;;;;;;;;;;;;;20.44;79.33;96928.94;5044007;28;19953;-73
2023/08/11 06:59:10;;;;;;;;;;;;;;;20.59;78.63;96928.13;5044074;28;19961;-73
2023/08/11 07:01:35;;;;;;;;;;;;;;;20.73;78.73;96924.91;5043563;28;19956;-74
2023/08/11 07:04:01;;;;;;;;;;;;;;;20.93;78.13;96921.38;5044111;28;19995;-74
2023/08/11 07:06:27;;;;;;;;;;;;;;;21.08;77.04;96916.78;5043457;28;19961;-74
2023/08/11 07:08:53;;;;;;;;;;;;;;;21.13;75.44;96899.97;5043629;28;19998;-73
2023/08/11 07:11:19;;;;;;;;;;;;;;;21.14;73.54;96890.88;5043648;28;20327;-73
2023/08/11 07:13:45;;;;;;;;;;;;;;;21.20;75.12;96905.78;5043645;28;20054;-74
2023/08/11 07:16:10;;;;;;;;;;;;;;;21.19;73.59;96898.84;5043691;28;20002;-76
2023/08/11 07:18:36;;;;;;;;;;;;;;;21.22;74.31;96895.63;5046967;28;19961;-77
2023/08/11 07:21:02;;;;;;;;;;;;;;;21.23;72.61;96885.75;5047376;28;19961;-77
2023/08/11 07:23:28;;;;;;;;;;;;;;;21.21;71.99;96879.91;5047470;28;19960;-77
2023/08/11 07:25:54;;;;;;;;;;;;;;;21.14;72.00;96893.53;5047608;28;20001;-77
2023/08/11 07:28:20;;;;;;;;;;;;;;;21.10;72.55;96908.50;5046041;28;19973;-77
2023/08/11 07:30:46;;;;;;;;;;;;;;;21.21;72.88;96906.59;5047311;28;20010;-75
2023/08/11 07:33:12;;;;;;;;;;;;;;;21.37;72.88;96904.63;5047526;28;19953;-69
2023/08/11 07:35:37;;;;;;;;;;;;;;;21.52;72.11;96907.22;5047320;28;19960;-74
2023/08/11 07:38:04;;;;;;;;;;;;;;;21.62;72.70;96909.03;5047039;28;19964;-74
2023/08/11 07:40:31;;;;;;;;;;;;;;;21.63;73.19;96911.44;5046792;28;19955;-74
2023/08/11 07:42:58;;;;;;;;;;;;;;;21.75;73.24;96911.06;5046859;28;19965;-74
2023/08/11 07:45:24;;;;;;;;;;;;;;;21.86;72.72;96915.28;5047225;28;19958;-74
2023/08/11 07:47:50;;;;;;;;;;;;;;;21.92;74.18;96928.56;5046742;28;19970;-74
2023/08/11 07:50:16;;;;;;;;;;;;;;;22.02;74.15;96931.97;5046562;28;19957;-70
2023/08/11 07:52:41;;;;;;;;;;;;;;;22.15;72.62;96925.16;5046937;28;19957;-71
2023/08/11 07:55:07;;;;;;;;;;;;;;;22.14;72.83;96933.50;5046862;28;20290;-70
2023/08/11 07:57:33;;;;;;;;;;;;;;;22.15;74.21;96945.75;5046816;28;20103;-70
2023/08/11 07:59:59;;;;;;;;;;;;;;;22.29;73.05;96949.41;5046891;28;20038;-70
2023/08/11 08:02:28;;;;;;;;;;;;;;;22.40;71.80;96939.41;5046812;28;19958;-71
2023/08/11 08:04:53;;;;;;;;;;;;;;;22.48;72.16;96949.50;5046778;28;20249;-71
2023/08/11 08:07:19;;;;;;;;;;;;;;;22.59;71.81;96948.31;5046254;28;19999;-70
2023/08/11 08:09:45;;;;;;;;;;;;;;;22.70;72.46;96963.19;5046689;28;19964;-69
2023/08/11 08:12:11;;;;;;;;;;;;;;;22.80;71.10;96959.59;5046642;28;20163;-73
2023/08/11 08:14:37;;;;;;;;;;;;;;;22.92;71.50;96956.53;5046239;28;20020;-74
2023/08/11 08:17:03;;;;;;;;;;;;;;;22.92;70.24;96963.75;5046764;28;20014;-73
2023/08/11 08:19:29;;;;;;;;;;;;;;;22.98;70.69;96965.31;5046584;28;19961;-74
2023/08/11 08:21:55;;;;;;;;;;;;;;;23.08;70.37;96962.53;5046317;28;19963;-74
2023/08/11 08:24:21;;;;;;;;;;;;;;;23.16;70.14;96972.63;5046259;28;19959;-74
2023/08/11 08:26:48;;;;;;;;;;;;;;;23.21;69.04;96966.41;5046304;28;20109;-75
2023/08/11 08:29:14;;;;;;;;;;;;;;;23.24;69.61;96973.84;5046271;28;19958;-73
2023/08/11 08:31:40;;;;;;;;;;;;;;;23.30;70.21;96973.47;5046320;28;20246;-73
2023/08/11 08:34:06;;;;;;;;;;;;;;;23.34;68.60;96964.91;5046259;28;19963;-73
2023/08/11 08:36:32;;;;;;;;;;;;;;;23.37;68.60;96962.44;5045990;28;19975;-73
2023/08/11 08:38:58;;;;;;;;;;;;;;;23.47;68.37;96974.88;5045608;28;19963;-74
2023/08/11 08:41:27;;;;;;;;;;;;;;;23.62;71.57;96976.56;5045732;28;20201;-73
2023/08/11 08:43:59;;;;;;;;;;;;;;;23.78;69.85;96969.94;5045947;28;19962;-70
2023/08/11 08:46:29;;;;;;;;;;;;;;;23.93;68.19;96962.75;5045811;28;20017;-76
2023/08/11 08:48:54;;;;;;;;;;;;;;;24.04;67.36;96964.19;5046371;28;20153;-73
2023/08/11 08:51:20;;;;;;;;;;;;;;;24.15;68.29;96967.50;5045786;28;20026;-73
2023/08/11 08:53:46;;;;;;;;;;;;;;;24.20;69.08;96970.13;5045866;28;19962;-73
2023/08/11 08:56:12;;;;;;;;;;;;;;;24.34;67.84;96964.78;5045925;28;19980;-73
2023/08/11 08:58:41;;;;;;;;;;;;;;;24.48;70.10;96979.00;5045810;28;20229;-73
2023/08/11 09:01:09;;;;;;;;;;;;;;;24.59;68.04;96972.44;5045457;28;20267;-73
2023/08/11 09:03:36;;;;;;;;;;;;;;;24.74;68.41;96965.19;5045764;28;19949;-73
2023/08/11 09:06:03;;;;;;;;;;;;;;;24.78;65.63;96950.91;5045281;28;19959;-74
2023/08/11 09:08:32;;;;;;;;;;;;;;;24.85;64.66;96951.28;5045578;28;20115;-74
2023/08/11 09:10:58;;;;;;;;;;;;;;;24.92;64.98;96953.56;5045264;28;20117;-74
2023/08/11 09:13:25;;;;;;;;;;;;;;;24.94;66.36;96961.31;5045270;28;19966;-74
2023/08/11 09:15:51;;;;;;;;;;;;;;;25.00;66.11;96954.78;5027559;28;20268;-74
2023/08/11 09:18:17;;;;;;;;;;;;;;;25.16;65.57;96950.69;5045321;28;19960;-74
2023/08/11 09:20:48;;;;;;;;;;;;;;;25.30;65.66;96946.13;5044901;28;20020;-70
2023/08/11 09:23:15;;;;;;;;;;;;;;;25.40;64.89;96945.09;5045327;28;19957;-74
2023/08/11 09:25:41;;;;;;;;;;;;;;;25.54;64.18;96945.09;5045261;28;19974;-74
2023/08/11 09:28:09;;;;;;;;;;;;;;;25.64;65.10;96935.97;5044498;28;21090;-74
2023/08/11 09:30:35;;;;;;;;;;;;;;;25.76;62.79;96932.78;5045248;28;19985;-74
2023/08/11 09:33:01;;;;;;;;;;;;;;;25.90;63.32;96939.72;5045226;28;19962;-74
2023/08/11 09:35:27;;;;;;;;;;;;;;;26.04;64.20;96936.97;5044765;28;19963;-74
2023/08/11 09:37:54;;;;;;;;;;;;;;;26.20;63.24;96939.28;5045289;28;19967;-73
2023/08/11 09:40:21;;;;;;;;;;;;;;;26.32;61.53;96928.75;5044426;28;19952;-73
2023/08/11 09:42:47;;;;;;;;;;;;;;;26.39;61.17;96931.78;5044785;28;19963;-75
2023/08/11 09:45:13;;;;;;;;;;;;;;;26.44;58.82;96930.88;5045162;28;20023;-75
2023/08/11 09:47:39;;;;;;;;;;;;;;;26.50;60.97;96935.81;5044732;28;20158;-75
2023/08/11 09:50:05;;;;;;;;;;;;;;;26.54;61.09;96930.59;5044875;28;19954;-75
2023/08/11 09:52:33;;;;;;;;;;;;;;;26.60;59.48;96926.69;5044869;28;19961;-75
2023/08/11 09:54:59;;;;;;;;;;;;;;;26.64;58.93;96937.66;5045707;28;20210;-75
2023/08/11 09:57:26;;;;;;;;;;;;;;;26.62;58.84;96939.84;5045070;28;19957;-70
2023/08/11 09:59:53;;;;;;;;;;;;;;;26.62;58.36;96934.47;5045067;28;20107;-74
2023/08/11 10:02:22;;;;;;;;;;;;;;;26.73;58.59;96944.66;5044362;28;19958;-74
2023/08/11 10:04:56;;;;;;;;;;;;;;;26.85;59.37;96944.06;5044549;28;19960;-75
2023/08/11 10:07:24;;;;;;;;;;;;;;;27.00;59.66;96950.13;5044823;28;19965;-74
2023/08/11 10:09:50;;;;;;;;;;;;;;;27.18;61.17;96957.16;5044404;28;19963;-73
2023/08/11 10:12:16;;;;;;;;;;;;;;;27.31;59.45;96948.16;5044495;28;19957;-73
2023/08/11 10:14:42;;;;;;;;;;;;;;;27.44;54.65;96929.50;5044394;28;19957;-73
2023/08/11 10:17:09;;;;;;;;;;;;;;;27.53;56.45;96946.47;5044466;28;19967;-70
2023/08/11 10:19:36;;;;;;;;;;;;;;;27.60;57.37;96952.19;5044728;28;19966;-73
2023/08/11 10:22:02;;;;;;;;;;;;;;;27.62;55.99;96949.19;5044560;28;19964;-73
2023/08/11 10:24:28;;;;;;;;;;;;;;;27.62;56.94;96951.88;5044464;28;20020;-74
2023/08/11 10:26:54;;;;;;;;;;;;;;;27.71;53.23;96941.88;5044502;28;20226;-73
2023/08/11 10:29:20;;;;;;;;;;;;;;;27.79;54.24;96951.88;5044228;28;19982;-74
2023/08/11 10:31:56;;;;;;;;;;;;;;;27.85;55.71;96952.50;5044135;28;19964;-73
2023/08/11 10:34:23;;;;;;;;;;;;;;;28.04;55.91;96952.22;5044397;28;19958;-74
2023/08/11 10:36:49;;;;;;;;;;;;;;;28.23;54.59;96935.69;5044066;28;19958;-71
2023/08/11 10:39:16;;;;;;;;;;;;;;;28.29;55.28;96950.59;5044269;28;20138;-73
2023/08/11 10:41:46;;;;;;;;;;;;;;;28.34;53.58;96945.78;5044196;28;19959;-73
2023/08/11 10:44:12;;;;;;;;;;;;;;;28.47;55.27;96949.41;5044296;28;19963;-73
2023/08/11 10:46:38;;;;;;;;;;;;;;;28.65;56.03;96952.09;5044293;28;19953;-74
2023/08/11 10:49:04;;;;;;;;;;;;;;;28.78;56.93;96953.00;5044269;28;19972;-73
2023/08/11 10:51:31;;;;;;;;;;;;;;;28.84;55.01;96955.19;5044190;28;20032;-74
2023/08/11 10:54:02;;;;;;;;;;;;;;;29.01;54.44;96953.53;5048231;28;19963;-70
2023/08/11 10:56:29;;;;;;;;;;;;;;;29.15;53.53;96951.44;5048155;28;19963;-80
2023/08/11 10:59:13;;;;;;;;;;;;;;;29.25;53.84;96947.53;5048313;28;19965;-79
2023/08/11 11:01:40;;;;;;;;;;;;;;;29.38;53.15;96945.72;5048138;28;19963;-79
2023/08/11 11:04:07;;;;;;;;;;;;;;;29.47;53.20;96943.75;5047963;28;19966;-78
2023/08/11 11:06:34;;;;;;;;;;;;;;;29.54;50.40;96938.63;5048052;28;19951;-79
2023/08/11 11:09:01;;;;;;;;;;;;;;;29.60;52.44;96945.41;5048011;28;20161;-78
2023/08/11 11:11:27;;;;;;;;;;;;;;;29.57;49.35;96931.75;5047490;28;19955;-76
2023/08/11 11:13:53;;;;;;;;;;;;;;;29.55;51.38;96934.81;5047831;28;20277;-74
2023/08/11 11:16:21;;;;;;;;;;;;;;;29.57;50.01;96935.28;5047321;28;20001;-78
2023/08/11 11:18:48;;;;;;;;;;;;;;;29.58;48.91;96931.44;5047491;28;19962;-78
2023/08/11 11:21:14;;;;;;;;;;;;;;;29.70;51.91;96928.81;5047722;28;20231;-78
2023/08/11 11:23:44;;;;;;;;;;;;;;;29.83;51.66;96924.25;5047790;28;19955;-78
2023/08/11 11:26:10;;;;;;;;;;;;;;;29.98;48.59;96920.16;5047832;28;19949;-78
2023/08/11 11:28:36;;;;;;;;;;;;;;;29.93;48.64;96909.56;5047533;28;20276;-78
2023/08/11 11:31:02;;;;;;;;;;;;;;;29.85;49.70;96922.00;5047052;28;19960;-75
2023/08/11 11:33:28;;;;;;;;;;;;;;;29.95;50.37;96916.19;5047368;28;19989;-70
2023/08/11 11:35:54;;;;;;;;;;;;;;;30.09;50.82;96910.50;5047383;28;19981;-70
2023/08/11 11:38:20;;;;;;;;;;;;;;;30.28;51.12;96901.88;5047357;28;19991;-71
2023/08/11 11:40:48;;;;;;;;;;;;;;;30.51;49.96;96905.00;5047342;28;19958;-70
2023/08/11 11:43:14;;;;;;;;;;;;;;;30.57;48.06;96902.84;5047233;28;20260;-69
2023/08/11 11:45:40;;;;;;;;;;;;;;;30.55;48.75;96910.50;5047490;28;19947;-71
2023/08/11 11:48:06;;;;;;;;;;;;;;;30.54;46.51;96901.59;5046983;28;19966;-73
2023/08/11 11:50:34;;;;;;;;;;;;;;;30.62;47.69;96904.56;5047051;28;19949;-74
2023/08/11 11:53:00;;;;;;;;;;;;;;;30.75;48.13;96914.25;5046783;28;19962;-74
2023/08/11 11:55:26;;;;;;;;;;;;;;;30.85;47.73;96910.28;5047095;28;20026;-74
2023/08/11 11:57:52;;;;;;;;;;;;;;;31.00;45.70;96914.28;5046783;28;19963;-74
2023/08/11 12:00:18;;;;;;;;;;;;;;;31.15;48.00;96917.06;5046825;28;20132;-74
2023/08/11 12:02:47;;;;;;;;;;;;;;;31.34;47.53;96916.47;5046538;28;19967;-74
2023/08/11 12:05:13;;;;;;;;;;;;;;;31.52;48.17;96914.34;5046824;28;19968;-74
2023/08/11 12:07:40;;;;;;;;;;;;;;;31.59;45.36;96916.47;5046794;28;19963;-76
2023/08/11 12:10:06;;;;;;;;;;;;;;;31.70;46.55;96911.34;5046857;28;19961;-74
2023/08/11 12:12:32;;;;;;;;;;;;;;;31.68;41.50;96902.75;5046735;28;20225;-74
2023/08/11 12:15:07;;;;;;;;;;;;;;;31.53;44.13;96910.47;5047008;28;19964;-73
2023/08/11 12:17:34;;;;;;;;;;;;;;;31.41;44.89;96910.47;5046527;28;19949;-73
2023/08/11 12:20:01;;;;;;;;;;;;;;;31.46;46.22;96913.00;5046619;28;19962;-74
2023/08/11 12:22:27;;;;;;;;;;;;;;;31.64;47.28;96915.41;5046295;28;20129;-73
2023/08/11 12:24:53;;;;;;;;;;;;;;;31.67;45.58;96912.81;5046253;28;19962;-71
2023/08/11 12:27:19;;;;;;;;;;;;;;;31.78;47.04;96910.41;5046468;28;19963;-75
2023/08/11 12:29:45;;;;;;;;;;;;;;;31.91;45.96;96903.78;5046313;28;19966;-70
2023/08/11 12:32:10;;;;;;;;;;;;;;;32.07;45.97;96905.78;5046267;28;19965;-70
2023/08/11 12:34:37;;;;;;;;;;;;;;;32.24;45.19;96908.19;5046258;28;19966;-70
2023/08/11 12:37:03;;;;;;;;;;;;;;;32.33;45.50;96908.78;5046264;28;20238;-71
2023/08/11 12:39:29;;;;;;;;;;;;;;;32.34;42.97;96912.31;5046187;28;19957;-72
2023/08/11 12:41:55;;;;;;;;;;;;;;;32.32;44.76;96914.59;5045770;28;19942;-70